Port Arthur, Texas
Current Conditions -  °F | °C
As of 1:01 AM on Monday 22 Dec 2014 (Local Time) from KBPT Reporting Station
Overcast Overcast  
Wind Chill: 56°   Ceiling: 1000
Heat Index: 56°   Visibility: 9mi
Dew Point: 53°   Wind: 7mph
Humidity: 90%   Direction: 100°E
Pressure: 29.87"   Gusts: NA
Location:  29.9°N, 93.93°W
Report Text: KBPT 220701Z AUTO 10006KT 9SM OVC010 13/12 A2987 RMK AO2 T01330117
Loading
Personal Weather Stations






























Interactive Weather Map New forecast layout! Learn more

10-Day Weather Forecast

Advertisements
Track Severe Weather on mobile